Rice, Kansas
Current Conditions -  °F | °C
As of 8:55 PM on Friday 19 Dec 2014 (Local Time) from KCNK Reporting Station
Haze Haze  
Wind Chill: 24°   Ceiling: Unl
Heat Index: 31°   Visibility: 4mi
Dew Point: 30°   Wind: 7mph
Humidity: 96%   Direction: 160°SSE
Pressure: 30.11"   Gusts: NA
Location:  39.4716°N, 97.7305°W
Report Text: KCNK 200255Z AUTO 16006KT 4SM BR FEW004 M01/M01 A3011 RMK AO2 SLP209 T10061011 56008 $
Loading
Personal Weather Stations






























Interactive Weather Map New forecast layout! Learn more

10-Day Weather Forecast

Advertisements
Track Severe Weather on mobile